sensor_id;sensor_type;location;lat;lon;timestamp;temperature;humidity
10384;DHT22;5238;43.508;4.980;2023-01-31T00:00:47;8.60;91.30
10384;DHT22;5238;43.508;4.980;2023-01-31T00:03:14;8.60;91.30
10384;DHT22;5238;43.508;4.980;2023-01-31T00:05:46;8.70;91.30
10384;DHT22;5238;43.508;4.980;2023-01-31T00:08:16;8.60;91.30
10384;DHT22;5238;43.508;4.980;2023-01-31T00:10:43;8.60;91.30
10384;DHT22;5238;43.508;4.980;2023-01-31T00:13:13;8.60;91.30
10384;DHT22;5238;43.508;4.980;2023-01-31T00:15:42;8.70;91.30
10384;DHT22;5238;43.508;4.980;2023-01-31T00:18:14;8.60;91.30
10384;DHT22;5238;43.508;4.980;2023-01-31T00:20:46;8.60;91.30
10384;DHT22;5238;43.508;4.980;2023-01-31T00:23:19;8.60;91.30
10384;DHT22;5238;43.508;4.980;2023-01-31T00:25:48;8.60;91.30
10384;DHT22;5238;43.508;4.980;2023-01-31T00:28:16;8.50;91.30
10384;DHT22;5238;43.508;4.980;2023-01-31T00:30:46;8.50;91.30
10384;DHT22;5238;43.508;4.980;2023-01-31T00:33:14;8.50;91.30
10384;DHT22;5238;43.508;4.980;2023-01-31T00:35:43;8.50;91.30
10384;DHT22;5238;43.508;4.980;2023-01-31T00:38:13;8.50;91.30
10384;DHT22;5238;43.508;4.980;2023-01-31T00:40:49;8.50;91.30
10384;DHT22;5238;43.508;4.980;2023-01-31T00:43:19;8.50;91.30
10384;DHT22;5238;43.508;4.980;2023-01-31T00:45:56;8.50;91.30
10384;DHT22;5238;43.508;4.980;2023-01-31T00:48:23;8.50;91.30
10384;DHT22;5238;43.508;4.980;2023-01-31T00:50:50;8.50;91.30
10384;DHT22;5238;43.508;4.980;2023-01-31T00:53:20;8.50;91.30
10384;DHT22;5238;43.508;4.980;2023-01-31T00:56:08;8.50;91.30
10384;DHT22;5238;43.508;4.980;2023-01-31T00:58:50;8.50;91.30
10384;DHT22;5238;43.508;4.980;2023-01-31T01:01:30;8.50;91.30
10384;DHT22;5238;43.508;4.980;2023-01-31T01:04:02;8.50;91.30
10384;DHT22;5238;43.508;4.980;2023-01-31T01:06:32;8.50;91.30
10384;DHT22;5238;43.508;4.980;2023-01-31T01:09:04;8.50;91.30
10384;DHT22;5238;43.508;4.980;2023-01-31T01:11:43;8.50;91.30
10384;DHT22;5238;43.508;4.980;2023-01-31T01:14:18;8.50;91.30
10384;DHT22;5238;43.508;4.980;2023-01-31T01:16:58;8.40;91.30
10384;DHT22;5238;43.508;4.980;2023-01-31T01:19:40;8.40;91.30
10384;DHT22;5238;43.508;4.980;2023-01-31T01:22:17;8.40;91.30
10384;DHT22;5238;43.508;4.980;2023-01-31T01:25:06;8.40;91.30
10384;DHT22;5238;43.508;4.980;2023-01-31T01:27:36;8.40;91.30
10384;DHT22;5238;43.508;4.980;2023-01-31T01:30:06;8.40;91.30
10384;DHT22;5238;43.508;4.980;2023-01-31T01:32:36;8.40;91.30
10384;DHT22;5238;43.508;4.980;2023-01-31T01:35:12;8.40;91.30
10384;DHT22;5238;43.508;4.980;2023-01-31T01:37:39;8.40;91.30
10384;DHT22;5238;43.508;4.980;2023-01-31T01:40:08;8.40;91.30
10384;DHT22;5238;43.508;4.980;2023-01-31T01:42:38;8.40;91.30
10384;DHT22;5238;43.508;4.980;2023-01-31T01:45:15;8.40;91.30
10384;DHT22;5238;43.508;4.980;2023-01-31T01:47:59;8.40;91.30
10384;DHT22;5238;43.508;4.980;2023-01-31T01:50:37;8.50;91.30
10384;DHT22;5238;43.508;4.980;2023-01-31T01:53:12;8.50;91.30
10384;DHT22;5238;43.508;4.980;2023-01-31T01:55:44;8.50;91.30
10384;DHT22;5238;43.508;4.980;2023-01-31T01:58:22;8.50;91.30
10384;DHT22;5238;43.508;4.980;2023-01-31T02:01:03;8.60;91.30
10384;DHT22;5238;43.508;4.980;2023-01-31T02:03:40;8.60;91.30
10384;DHT22;5238;43.508;4.980;2023-01-31T02:06:14;8.60;91.30
10384;DHT22;5238;43.508;4.980;2023-01-31T02:08:47;8.60;91.30
10384;DHT22;5238;43.508;4.980;2023-01-31T02:11:24;8.60;91.30
10384;DHT22;5238;43.508;4.980;2023-01-31T02:13:58;8.60;91.30
10384;DHT22;5238;43.508;4.980;2023-01-31T02:16:28;8.60;91.30
10384;DHT22;5238;43.508;4.980;2023-01-31T02:19:17;8.50;91.30
10384;DHT22;5238;43.508;4.980;2023-01-31T02:22:13;8.60;91.30
10384;DHT22;5238;43.508;4.980;2023-01-31T02:25:13;8.60;91.30
10384;DHT22;5238;43.508;4.980;2023-01-31T02:28:14;8.60;91.30
10384;DHT22;5238;43.508;4.980;2023-01-31T02:31:14;8.60;91.30
10384;DHT22;5238;43.508;4.980;2023-01-31T02:33:55;8.50;91.30
10384;DHT22;5238;43.508;4.980;2023-01-31T02:36:35;8.60;91.30
10384;DHT22;5238;43.508;4.980;2023-01-31T02:39:17;8.60;91.30
10384;DHT22;5238;43.508;4.980;2023-01-31T02:42:09;8.50;91.30
10384;DHT22;5238;43.508;4.980;2023-01-31T02:44:49;8.50;91.30
10384;DHT22;5238;43.508;4.980;2023-01-31T02:47:37;8.50;91.30
10384;DHT22;5238;43.508;4.980;2023-01-31T02:50:16;8.50;91.30
10384;DHT22;5238;43.508;4.980;2023-01-31T02:52:52;8.40;91.30
10384;DHT22;5238;43.508;4.980;2023-01-31T02:55:29;8.40;91.30
10384;DHT22;5238;43.508;4.980;2023-01-31T02:58:20;8.30;91.30
10384;DHT22;5238;43.508;4.980;2023-01-31T03:01:01;8.30;91.30
10384;DHT22;5238;43.508;4.980;2023-01-31T03:03:51;8.30;91.30
10384;DHT22;5238;43.508;4.980;2023-01-31T03:06:40;8.20;91.30
10384;DHT22;5238;43.508;4.980;2023-01-31T03:09:23;8.20;91.30
10384;DHT22;5238;43.508;4.980;2023-01-31T03:12:12;8.10;91.30
10384;DHT22;5238;43.508;4.980;2023-01-31T03:14:49;8.10;91.30
10384;DHT22;5238;43.508;4.980;2023-01-31T03:17:34;8.00;91.30
10384;DHT22;5238;43.508;4.980;2023-01-31T03:20:07;8.00;91.30
10384;DHT22;5238;43.508;4.980;2023-01-31T03:22:40;8.00;91.30
10384;DHT22;5238;43.508;4.980;2023-01-31T03:25:15;7.90;91.30
10384;DHT22;5238;43.508;4.980;2023-01-31T03:27:49;7.90;91.30
10384;DHT22;5238;43.508;4.980;2023-01-31T03:30:24;7.90;91.30
10384;DHT22;5238;43.508;4.980;2023-01-31T03:33:07;7.90;91.30
10384;DHT22;5238;43.508;4.980;2023-01-31T03:35:39;7.90;91.30
10384;DHT22;5238;43.508;4.980;2023-01-31T03:38:20;7.90;91.30
10384;DHT22;5238;43.508;4.980;2023-01-31T03:40:55;7.90;91.30
10384;DHT22;5238;43.508;4.980;2023-01-31T03:43:34;7.90;91.30
10384;DHT22;5238;43.508;4.980;2023-01-31T03:46:21;7.90;91.30
10384;DHT22;5238;43.508;4.980;2023-01-31T03:48:52;7.90;91.30
10384;DHT22;5238;43.508;4.980;2023-01-31T03:51:25;7.90;91.30
10384;DHT22;5238;43.508;4.980;2023-01-31T03:54:04;7.80;91.30
10384;DHT22;5238;43.508;4.980;2023-01-31T03:56:37;7.80;91.30
10384;DHT22;5238;43.508;4.980;2023-01-31T03:59:16;7.80;91.30
10384;DHT22;5238;43.508;4.980;2023-01-31T04:01:53;7.80;91.30
10384;DHT22;5238;43.508;4.980;2023-01-31T04:04:24;7.80;91.30
10384;DHT22;5238;43.508;4.980;2023-01-31T04:06:56;7.80;91.30
10384;DHT22;5238;43.508;4.980;2023-01-31T04:09:40;7.80;91.30
10384;DHT22;5238;43.508;4.980;2023-01-31T04:12:15;7.80;91.30
10384;DHT22;5238;43.508;4.980;2023-01-31T04:14:52;7.80;91.30
10384;DHT22;5238;43.508;4.980;2023-01-31T04:17:26;7.80;91.30
10384;DHT22;5238;43.508;4.980;2023-01-31T04:19:59;7.70;91.30
10384;DHT22;5238;43.508;4.980;2023-01-31T04:22:26;7.70;91.30
10384;DHT22;5238;43.508;4.980;2023-01-31T04:24:55;7.70;91.30
10384;DHT22;5238;43.508;4.980;2023-01-31T04:27:39;7.70;91.30
10384;DHT22;5238;43.508;4.980;2023-01-31T04:30:10;7.70;91.30
10384;DHT22;5238;43.508;4.980;2023-01-31T04:32:42;7.60;91.30
10384;DHT22;5238;43.508;4.980;2023-01-31T04:35:25;7.60;91.30
10384;DHT22;5238;43.508;4.980;2023-01-31T04:37:54;7.60;91.30
10384;DHT22;5238;43.508;4.980;2023-01-31T04:40:25;7.60;91.30
10384;DHT22;5238;43.508;4.980;2023-01-31T04:42:55;7.60;91.30
10384;DHT22;5238;43.508;4.980;2023-01-31T04:45:36;7.60;91.30
10384;DHT22;5238;43.508;4.980;2023-01-31T04:48:04;7.60;91.30
10384;DHT22;5238;43.508;4.980;2023-01-31T04:50:33;7.60;91.30
10384;DHT22;5238;43.508;4.980;2023-01-31T04:53:00;7.60;91.30
10384;DHT22;5238;43.508;4.980;2023-01-31T04:55:34;7.60;91.30
10384;DHT22;5238;43.508;4.980;2023-01-31T04:58:04;7.60;91.30
10384;DHT22;5238;43.508;4.980;2023-01-31T05:00:48;7.60;91.30
10384;DHT22;5238;43.508;4.980;2023-01-31T05:03:15;7.60;91.30
10384;DHT22;5238;43.508;4.980;2023-01-31T05:05:42;7.60;91.30
10384;DHT22;5238;43.508;4.980;2023-01-31T05:08:10;7.60;91.30
10384;DHT22;5238;43.508;4.980;2023-01-31T05:10:43;7.60;91.30
10384;DHT22;5238;43.508;4.980;2023-01-31T05:13:13;7.60;91.30
10384;DHT22;5238;43.508;4.980;2023-01-31T05:15:40;7.60;91.30
10384;DHT22;5238;43.508;4.980;2023-01-31T05:18:08;7.60;91.30
10384;DHT22;5238;43.508;4.980;2023-01-31T05:20:36;7.60;91.30
10384;DHT22;5238;43.508;4.980;2023-01-31T05:23:12;7.60;91.30
10384;DHT22;5238;43.508;4.980;2023-01-31T05:25:42;7.60;91.30
10384;DHT22;5238;43.508;4.980;2023-01-31T05:28:18;7.60;91.30
10384;DHT22;5238;43.508;4.980;2023-01-31T05:30:47;7.60;91.30
10384;DHT22;5238;43.508;4.980;2023-01-31T05:33:17;7.60;91.30
10384;DHT22;5238;43.508;4.980;2023-01-31T05:35:48;7.60;91.30
10384;DHT22;5238;43.508;4.980;2023-01-31T05:38:16;7.60;91.30
10384;DHT22;5238;43.508;4.980;2023-01-31T05:40:44;7.60;91.30
10384;DHT22;5238;43.508;4.980;2023-01-31T05:43:15;7.60;91.30
10384;DHT22;5238;43.508;4.980;2023-01-31T05:45:42;7.60;91.30
10384;DHT22;5238;43.508;4.980;2023-01-31T05:48:13;7.60;91.30
10384;DHT22;5238;43.508;4.980;2023-01-31T05:50:40;7.60;91.30
10384;DHT22;5238;43.508;4.980;2023-01-31T05:53:10;7.50;91.30
10384;DHT22;5238;43.508;4.980;2023-01-31T05:55:39;7.50;91.30
10384;DHT22;5238;43.508;4.980;2023-01-31T05:58:09;7.60;91.30
10384;DHT22;5238;43.508;4.980;2023-01-31T06:00:36;7.60;91.30
10384;DHT22;5238;43.508;4.980;2023-01-31T06:03:03;7.60;91.30
10384;DHT22;5238;43.508;4.980;2023-01-31T06:05:32;7.50;91.30
10384;DHT22;5238;43.508;4.980;2023-01-31T06:08:02;7.50;91.30
10384;DHT22;5238;43.508;4.980;2023-01-31T06:10:30;7.50;91.30
10384;DHT22;5238;43.508;4.980;2023-01-31T06:13:00;7.50;91.30
10384;DHT22;5238;43.508;4.980;2023-01-31T06:15:29;7.50;91.30
10384;DHT22;5238;43.508;4.980;2023-01-31T06:17:57;7.50;91.30
10384;DHT22;5238;43.508;4.980;2023-01-31T06:20:25;7.50;91.30
10384;DHT22;5238;43.508;4.980;2023-01-31T06:22:53;7.50;91.30
10384;DHT22;5238;43.508;4.980;2023-01-31T06:25:21;7.50;91.30
10384;DHT22;5238;43.508;4.980;2023-01-31T06:31:12;7.50;91.30
10384;DHT22;5238;43.508;4.980;2023-01-31T06:33:39;7.40;91.30
10384;DHT22;5238;43.508;4.980;2023-01-31T06:36:07;7.40;91.30
10384;DHT22;5238;43.508;4.980;2023-01-31T06:39:11;7.40;91.30
10384;DHT22;5238;43.508;4.980;2023-01-31T06:41:35;7.40;91.30
10384;DHT22;5238;43.508;4.980;2023-01-31T06:44:08;7.40;91.30
10384;DHT22;5238;43.508;4.980;2023-01-31T06:46:39;7.40;91.30
10384;DHT22;5238;43.508;4.980;2023-01-31T06:49:07;7.40;91.30
10384;DHT22;5238;43.508;4.980;2023-01-31T06:51:38;7.40;91.30
10384;DHT22;5238;43.508;4.980;2023-01-31T06:54:06;7.40;91.30
10384;DHT22;5238;43.508;4.980;2023-01-31T06:56:33;7.40;91.30
10384;DHT22;5238;43.508;4.980;2023-01-31T06:59:08;7.40;91.30
10384;DHT22;5238;43.508;4.980;2023-01-31T07:01:37;7.40;91.30
10384;DHT22;5238;43.508;4.980;2023-01-31T07:04:04;7.40;91.30
10384;DHT22;5238;43.508;4.980;2023-01-31T07:06:33;7.40;91.30
10384;DHT22;5238;43.508;4.980;2023-01-31T07:09:00;7.40;91.30
10384;DHT22;5238;43.508;4.980;2023-01-31T07:11:29;7.50;91.30
10384;DHT22;5238;43.508;4.980;2023-01-31T07:14:01;7.50;91.30
10384;DHT22;5238;43.508;4.980;2023-01-31T07:19:32;7.50;91.30
10384;DHT22;5238;43.508;4.980;2023-01-31T07:22:01;7.60;91.30
10384;DHT22;5238;43.508;4.980;2023-01-31T07:24:43;7.60;91.30
10384;DHT22;5238;43.508;4.980;2023-01-31T07:27:57;7.60;91.30
10384;DHT22;5238;43.508;4.980;2023-01-31T07:30:25;7.60;91.30
10384;DHT22;5238;43.508;4.980;2023-01-31T07:47:04;8.50;91.30
10384;DHT22;5238;43.508;4.980;2023-01-31T07:49:57;8.80;91.30
10384;DHT22;5238;43.508;4.980;2023-01-31T07:52:24;9.10;91.30
10384;DHT22;5238;43.508;4.980;2023-01-31T07:54:51;9.30;91.30
10384;DHT22;5238;43.508;4.980;2023-01-31T07:57:22;9.50;91.30
10384;DHT22;5238;43.508;4.980;2023-01-31T08:00:00;9.70;91.30
10384;DHT22;5238;43.508;4.980;2023-01-31T08:02:32;9.90;91.30
10384;DHT22;5238;43.508;4.980;2023-01-31T08:05:20;10.10;91.30
10384;DHT22;5238;43.508;4.980;2023-01-31T08:07:51;10.20;91.30
10384;DHT22;5238;43.508;4.980;2023-01-31T08:10:44;10.30;91.30
10384;DHT22;5238;43.508;4.980;2023-01-31T08:13:15;10.50;91.30
10384;DHT22;5238;43.508;4.980;2023-01-31T08:15:45;10.70;91.30
10384;DHT22;5238;43.508;4.980;2023-01-31T08:18:16;10.80;91.30
10384;DHT22;5238;43.508;4.980;2023-01-31T08:20:43;10.90;91.30
10384;DHT22;5238;43.508;4.980;2023-01-31T08:23:12;11.10;91.30
10384;DHT22;5238;43.508;4.980;2023-01-31T08:25:52;11.20;91.30
10384;DHT22;5238;43.508;4.980;2023-01-31T08:28:39;11.30;91.30
10384;DHT22;5238;43.508;4.980;2023-01-31T08:31:10;11.50;91.30
10384;DHT22;5238;43.508;4.980;2023-01-31T08:33:39;11.60;91.30
10384;DHT22;5238;43.508;4.980;2023-01-31T08:36:11;11.70;91.30
10384;DHT22;5238;43.508;4.980;2023-01-31T08:38:39;11.90;91.30
10384;DHT22;5238;43.508;4.980;2023-01-31T08:41:27;12.00;91.30
10384;DHT22;5238;43.508;4.980;2023-01-31T08:43:58;12.20;91.30
10384;DHT22;5238;43.508;4.980;2023-01-31T08:46:29;12.40;91.30
10384;DHT22;5238;43.508;4.980;2023-01-31T08:48:58;12.50;91.30
10384;DHT22;5238;43.508;4.980;2023-01-31T08:51:28;12.70;91.30
10384;DHT22;5238;43.508;4.980;2023-01-31T08:54:00;12.90;91.30
10384;DHT22;5238;43.508;4.980;2023-01-31T08:56:34;13.10;91.30
10384;DHT22;5238;43.508;4.980;2023-01-31T08:59:05;13.40;91.30
10384;DHT22;5238;43.508;4.980;2023-01-31T09:01:38;13.60;91.30
10384;DHT22;5238;43.508;4.980;2023-01-31T09:04:13;13.70;91.30
10384;DHT22;5238;43.508;4.980;2023-01-31T09:06:49;13.90;91.30
10384;DHT22;5238;43.508;4.980;2023-01-31T09:09:21;14.00;91.30
10384;DHT22;5238;43.508;4.980;2023-01-31T09:11:51;14.30;91.30
10384;DHT22;5238;43.508;4.980;2023-01-31T09:14:21;14.50;91.30
10384;DHT22;5238;43.508;4.980;2023-01-31T09:16:52;14.70;91.30
10384;DHT22;5238;43.508;4.980;2023-01-31T09:19:23;14.80;91.30
10384;DHT22;5238;43.508;4.980;2023-01-31T09:21:56;15.00;91.30
10384;DHT22;5238;43.508;4.980;2023-01-31T09:24:25;15.10;91.30
10384;DHT22;5238;43.508;4.980;2023-01-31T09:26:54;15.20;91.30
10384;DHT22;5238;43.508;4.980;2023-01-31T09:29:22;15.30;91.30
10384;DHT22;5238;43.508;4.980;2023-01-31T09:31:57;15.30;91.30
10384;DHT22;5238;43.508;4.980;2023-01-31T09:34:28;15.40;91.30
10384;DHT22;5238;43.508;4.980;2023-01-31T09:36:58;15.40;91.30
10384;DHT22;5238;43.508;4.980;2023-01-31T09:39:31;15.40;91.30
10384;DHT22;5238;43.508;4.980;2023-01-31T09:42:12;15.40;91.30
10384;DHT22;5238;43.508;4.980;2023-01-31T09:44:44;15.50;91.30
10384;DHT22;5238;43.508;4.980;2023-01-31T09:47:23;15.50;91.30
10384;DHT22;5238;43.508;4.980;2023-01-31T09:50:05;15.60;91.30
10384;DHT22;5238;43.508;4.980;2023-01-31T09:52:33;15.70;91.30
10384;DHT22;5238;43.508;4.980;2023-01-31T09:55:03;15.80;91.30
10384;DHT22;5238;43.508;4.980;2023-01-31T09:57:41;15.90;91.30
10384;DHT22;5238;43.508;4.980;2023-01-31T10:00:23;16.00;91.30
10384;DHT22;5238;43.508;4.980;2023-01-31T10:03:18;16.10;91.30
10384;DHT22;5238;43.508;4.980;2023-01-31T10:06:01;16.20;91.30
10384;DHT22;5238;43.508;4.980;2023-01-31T10:08:40;16.40;91.30
10384;DHT22;5238;43.508;4.980;2023-01-31T10:11:14;16.50;91.30
10384;DHT22;5238;43.508;4.980;2023-01-31T10:13:45;16.50;91.30
10384;DHT22;5238;43.508;4.980;2023-01-31T10:16:21;16.60;91.30
10384;DHT22;5238;43.508;4.980;2023-01-31T10:18:56;16.70;91.30
10384;DHT22;5238;43.508;4.980;2023-01-31T10:21:33;16.80;91.30
10384;DHT22;5238;43.508;4.980;2023-01-31T10:24:12;16.80;91.30
10384;DHT22;5238;43.508;4.980;2023-01-31T10:26:49;16.80;91.30
10384;DHT22;5238;43.508;4.980;2023-01-31T10:29:22;16.90;91.30
10384;DHT22;5238;43.508;4.980;2023-01-31T10:31:59;16.90;91.30
10384;DHT22;5238;43.508;4.980;2023-01-31T10:34:32;17.00;91.30
10384;DHT22;5238;43.508;4.980;2023-01-31T10:37:10;17.10;91.30
10384;DHT22;5238;43.508;4.980;2023-01-31T10:39:42;17.10;91.30
10384;DHT22;5238;43.508;4.980;2023-01-31T10:42:19;17.20;91.30
10384;DHT22;5238;43.508;4.980;2023-01-31T10:44:52;17.20;91.30
10384;DHT22;5238;43.508;4.980;2023-01-31T10:47:31;17.30;91.30
10384;DHT22;5238;43.508;4.980;2023-01-31T10:50:12;17.30;91.30
10384;DHT22;5238;43.508;4.980;2023-01-31T10:53:13;17.20;91.30
10384;DHT22;5238;43.508;4.980;2023-01-31T10:56:02;17.20;91.30
10384;DHT22;5238;43.508;4.980;2023-01-31T10:58:32;17.20;91.30
10384;DHT22;5238;43.508;4.980;2023-01-31T11:01:04;17.20;91.30
10384;DHT22;5238;43.508;4.980;2023-01-31T11:03:35;17.30;91.30
10384;DHT22;5238;43.508;4.980;2023-01-31T11:06:22;17.30;91.30
10384;DHT22;5238;43.508;4.980;2023-01-31T11:09:02;17.20;91.30
10384;DHT22;5238;43.508;4.980;2023-01-31T11:11:31;17.20;91.30
10384;DHT22;5238;43.508;4.980;2023-01-31T11:14:03;17.10;91.30
10384;DHT22;5238;43.508;4.980;2023-01-31T11:16:38;16.90;91.30
10384;DHT22;5238;43.508;4.980;2023-01-31T11:19:17;16.90;91.30
10384;DHT22;5238;43.508;4.980;2023-01-31T11:21:49;16.80;91.30
10384;DHT22;5238;43.508;4.980;2023-01-31T11:24:29;16.60;91.30
10384;DHT22;5238;43.508;4.980;2023-01-31T11:27:01;16.50;91.30
10384;DHT22;5238;43.508;4.980;2023-01-31T11:29:35;16.40;91.30
10384;DHT22;5238;43.508;4.980;2023-01-31T11:32:16;16.30;91.30
10384;DHT22;5238;43.508;4.980;2023-01-31T11:34:59;16.20;91.30
10384;DHT22;5238;43.508;4.980;2023-01-31T11:37:51;16.00;91.30
10384;DHT22;5238;43.508;4.980;2023-01-31T11:40:25;15.80;91.30
10384;DHT22;5238;43.508;4.980;2023-01-31T11:42:56;15.70;91.30
10384;DHT22;5238;43.508;4.980;2023-01-31T11:45:29;15.60;91.30
10384;DHT22;5238;43.508;4.980;2023-01-31T11:48:04;15.50;91.30
10384;DHT22;5238;43.508;4.980;2023-01-31T11:50:35;15.40;91.30
10384;DHT22;5238;43.508;4.980;2023-01-31T11:53:16;15.30;91.30
10384;DHT22;5238;43.508;4.980;2023-01-31T11:55:56;15.20;91.30
10384;DHT22;5238;43.508;4.980;2023-01-31T11:58:35;15.10;91.30
10384;DHT22;5238;43.508;4.980;2023-01-31T12:01:12;15.10;91.30
10384;DHT22;5238;43.508;4.980;2023-01-31T12:03:50;15.00;91.30
10384;DHT22;5238;43.508;4.980;2023-01-31T12:06:27;15.00;91.30
10384;DHT22;5238;43.508;4.980;2023-01-31T12:08:58;14.90;91.30
10384;DHT22;5238;43.508;4.980;2023-01-31T12:11:51;14.90;91.30
10384;DHT22;5238;43.508;4.980;2023-01-31T12:14:33;14.80;91.30
10384;DHT22;5238;43.508;4.980;2023-01-31T12:17:01;14.80;91.30
10384;DHT22;5238;43.508;4.980;2023-01-31T12:19:37;14.70;91.30
10384;DHT22;5238;43.508;4.980;2023-01-31T12:22:24;14.70;91.30
10384;DHT22;5238;43.508;4.980;2023-01-31T12:25:07;14.60;91.30
10384;DHT22;5238;43.508;4.980;2023-01-31T12:27:50;14.60;91.30
10384;DHT22;5238;43.508;4.980;2023-01-31T12:30:42;14.60;91.30
10384;DHT22;5238;43.508;4.980;2023-01-31T12:33:28;14.60;91.30
10384;DHT22;5238;43.508;4.980;2023-01-31T12:36:25;14.60;91.30
10384;DHT22;5238;43.508;4.980;2023-01-31T12:39:26;14.60;91.30
10384;DHT22;5238;43.508;4.980;2023-01-31T12:42:15;14.60;91.30
10384;DHT22;5238;43.508;4.980;2023-01-31T12:44:59;14.60;91.30
10384;DHT22;5238;43.508;4.980;2023-01-31T12:48:06;14.60;91.30
10384;DHT22;5238;43.508;4.980;2023-01-31T12:50:45;14.50;91.30
10384;DHT22;5238;43.508;4.980;2023-01-31T12:53:41;14.60;91.30
10384;DHT22;5238;43.508;4.980;2023-01-31T12:56:38;14.60;91.30
10384;DHT22;5238;43.508;4.980;2023-01-31T12:59:19;14.50;91.30
10384;DHT22;5238;43.508;4.980;2023-01-31T13:02:01;14.50;91.30
10384;DHT22;5238;43.508;4.980;2023-01-31T13:04:44;14.50;91.30
10384;DHT22;5238;43.508;4.980;2023-01-31T13:07:21;14.50;91.30
10384;DHT22;5238;43.508;4.980;2023-01-31T13:09:58;14.50;91.30
10384;DHT22;5238;43.508;4.980;2023-01-31T13:12:34;14.50;91.30
10384;DHT22;5238;43.508;4.980;2023-01-31T13:15:12;14.50;91.30
10384;DHT22;5238;43.508;4.980;2023-01-31T13:17:42;14.40;91.30
10384;DHT22;5238;43.508;4.980;2023-01-31T13:20:21;14.40;91.30
10384;DHT22;5238;43.508;4.980;2023-01-31T13:22:55;14.40;91.30
10384;DHT22;5238;43.508;4.980;2023-01-31T13:25:34;14.40;91.30
10384;DHT22;5238;43.508;4.980;2023-01-31T13:28:10;14.40;91.30
10384;DHT22;5238;43.508;4.980;2023-01-31T13:30:44;14.40;91.30
10384;DHT22;5238;43.508;4.980;2023-01-31T13:33:26;14.40;91.30
10384;DHT22;5238;43.508;4.980;2023-01-31T13:36:15;14.40;91.30
10384;DHT22;5238;43.508;4.980;2023-01-31T13:38:44;14.40;91.30
10384;DHT22;5238;43.508;4.980;2023-01-31T13:41:19;14.40;91.30
10384;DHT22;5238;43.508;4.980;2023-01-31T13:43:56;14.40;91.30
10384;DHT22;5238;43.508;4.980;2023-01-31T13:46:28;14.40;91.30
10384;DHT22;5238;43.508;4.980;2023-01-31T13:49:13;14.40;91.30
10384;DHT22;5238;43.508;4.980;2023-01-31T13:51:54;14.40;91.30
10384;DHT22;5238;43.508;4.980;2023-01-31T13:54:26;14.40;91.30
10384;DHT22;5238;43.508;4.980;2023-01-31T13:57:00;14.40;91.30
10384;DHT22;5238;43.508;4.980;2023-01-31T13:59:34;14.40;91.30
10384;DHT22;5238;43.508;4.980;2023-01-31T14:02:04;14.40;91.30
10384;DHT22;5238;43.508;4.980;2023-01-31T14:04:36;14.40;91.30
10384;DHT22;5238;43.508;4.980;2023-01-31T14:07:18;14.40;91.30
10384;DHT22;5238;43.508;4.980;2023-01-31T14:10:27;14.50;91.30
10384;DHT22;5238;43.508;4.980;2023-01-31T14:16:36;14.50;91.30
10384;DHT22;5238;43.508;4.980;2023-01-31T14:19:04;14.40;91.30
10384;DHT22;5238;43.508;4.980;2023-01-31T14:21:56;14.40;91.30
10384;DHT22;5238;43.508;4.980;2023-01-31T14:24:57;14.40;91.30
10384;DHT22;5238;43.508;4.980;2023-01-31T14:27:34;14.30;91.30
10384;DHT22;5238;43.508;4.980;2023-01-31T14:30:35;14.30;91.30
10384;DHT22;5238;43.508;4.980;2023-01-31T14:33:26;14.30;91.30
10384;DHT22;5238;43.508;4.980;2023-01-31T14:48:18;14.20;91.30
10384;DHT22;5238;43.508;4.980;2023-01-31T14:51:01;14.20;91.30
10384;DHT22;5238;43.508;4.980;2023-01-31T14:59:38;14.10;91.30
10384;DHT22;5238;43.508;4.980;2023-01-31T15:02:40;14.10;91.30
10384;DHT22;5238;43.508;4.980;2023-01-31T15:05:13;14.00;91.30
10384;DHT22;5238;43.508;4.980;2023-01-31T15:08:03;14.00;91.30
10384;DHT22;5238;43.508;4.980;2023-01-31T15:10:56;14.00;91.30
10384;DHT22;5238;43.508;4.980;2023-01-31T15:13:39;13.90;91.30
10384;DHT22;5238;43.508;4.980;2023-01-31T15:16:15;13.90;91.30
10384;DHT22;5238;43.508;4.980;2023-01-31T15:18:49;13.90;91.30
10384;DHT22;5238;43.508;4.980;2023-01-31T15:21:22;13.90;91.30
10384;DHT22;5238;43.508;4.980;2023-01-31T15:23:51;13.90;91.30
10384;DHT22;5238;43.508;4.980;2023-01-31T15:26:19;13.90;91.30
10384;DHT22;5238;43.508;4.980;2023-01-31T15:28:48;13.90;91.30
10384;DHT22;5238;43.508;4.980;2023-01-31T15:31:22;13.90;91.30
10384;DHT22;5238;43.508;4.980;2023-01-31T15:34:02;13.80;91.30
10384;DHT22;5238;43.508;4.980;2023-01-31T15:36:34;13.80;91.30
10384;DHT22;5238;43.508;4.980;2023-01-31T15:39:19;13.80;91.30
10384;DHT22;5238;43.508;4.980;2023-01-31T15:41:47;13.70;91.30
10384;DHT22;5238;43.508;4.980;2023-01-31T15:44:19;13.70;91.30
10384;DHT22;5238;43.508;4.980;2023-01-31T15:46:54;13.60;91.30
10384;DHT22;5238;43.508;4.980;2023-01-31T15:49:26;13.60;91.30
10384;DHT22;5238;43.508;4.980;2023-01-31T15:52:05;13.50;91.30
10384;DHT22;5238;43.508;4.980;2023-01-31T15:54:39;13.50;91.30
10384;DHT22;5238;43.508;4.980;2023-01-31T15:57:12;13.40;91.30
10384;DHT22;5238;43.508;4.980;2023-01-31T15:59:46;13.40;91.30
10384;DHT22;5238;43.508;4.980;2023-01-31T16:02:23;13.30;91.30
10384;DHT22;5238;43.508;4.980;2023-01-31T16:04:57;13.30;91.30
10384;DHT22;5238;43.508;4.980;2023-01-31T16:07:26;13.20;91.30
10384;DHT22;5238;43.508;4.980;2023-01-31T16:09:58;13.20;91.30
10384;DHT22;5238;43.508;4.980;2023-01-31T16:12:30;13.10;91.30
10384;DHT22;5238;43.508;4.980;2023-01-31T16:15:04;13.10;91.30
10384;DHT22;5238;43.508;4.980;2023-01-31T16:17:40;13.00;91.30
10384;DHT22;5238;43.508;4.980;2023-01-31T16:20:39;12.90;91.30
10384;DHT22;5238;43.508;4.980;2023-01-31T16:23:29;12.90;91.30
10384;DHT22;5238;43.508;4.980;2023-01-31T16:26:19;12.80;91.30
10384;DHT22;5238;43.508;4.980;2023-01-31T16:28:50;12.80;91.30
10384;DHT22;5238;43.508;4.980;2023-01-31T16:31:20;12.70;91.30
10384;DHT22;5238;43.508;4.980;2023-01-31T16:33:50;12.70;91.30
10384;DHT22;5238;43.508;4.980;2023-01-31T16:36:28;12.60;91.30
10384;DHT22;5238;43.508;4.980;2023-01-31T16:38:59;12.50;91.30
10384;DHT22;5238;43.508;4.980;2023-01-31T16:41:43;12.50;91.30
10384;DHT22;5238;43.508;4.980;2023-01-31T16:44:17;12.40;91.30
10384;DHT22;5238;43.508;4.980;2023-01-31T16:46:47;12.40;91.30
10384;DHT22;5238;43.508;4.980;2023-01-31T16:49:21;12.30;91.30
10384;DHT22;5238;43.508;4.980;2023-01-31T16:51:50;12.20;91.30
10384;DHT22;5238;43.508;4.980;2023-01-31T16:54:20;12.10;91.30
10384;DHT22;5238;43.508;4.980;2023-01-31T16:57:06;12.00;91.30
10384;DHT22;5238;43.508;4.980;2023-01-31T16:59:45;12.00;91.30
10384;DHT22;5238;43.508;4.980;2023-01-31T17:02:20;11.90;91.30
10384;DHT22;5238;43.508;4.980;2023-01-31T17:04:49;11.80;91.30
10384;DHT22;5238;43.508;4.980;2023-01-31T17:07:20;11.80;91.30
10384;DHT22;5238;43.508;4.980;2023-01-31T17:09:52;11.70;91.30
10384;DHT22;5238;43.508;4.980;2023-01-31T17:12:24;11.60;91.30
10384;DHT22;5238;43.508;4.980;2023-01-31T17:14:57;11.60;91.30
10384;DHT22;5238;43.508;4.980;2023-01-31T17:17:26;11.50;91.30
10384;DHT22;5238;43.508;4.980;2023-01-31T17:19:55;11.40;91.30
10384;DHT22;5238;43.508;4.980;2023-01-31T17:22:23;11.40;91.30
10384;DHT22;5238;43.508;4.980;2023-01-31T17:24:56;11.30;91.30
10384;DHT22;5238;43.508;4.980;2023-01-31T17:27:23;11.20;91.30
10384;DHT22;5238;43.508;4.980;2023-01-31T17:29:53;11.20;91.30